createdAt,value
2018-08-12T00:00:03.970Z,40.9
2018-08-12T00:00:54.055Z,40.9
2018-08-12T00:01:44.636Z,40.9
2018-08-12T00:02:34.489Z,40.9
2018-08-12T00:03:24.234Z,40.9
2018-08-12T00:04:14.615Z,40.9
2018-08-12T00:05:03.810Z,40.9
2018-08-12T00:05:54.734Z,40.8
2018-08-12T00:06:44.466Z,40.8
2018-08-12T00:07:34.522Z,40.8
2018-08-12T00:08:25.158Z,40.8
2018-08-12T00:09:14.698Z,40.8
2018-08-12T00:10:19.105Z,40.8
2018-08-12T00:10:54.220Z,40.8
2018-08-12T00:11:45.139Z,40.8
2018-08-12T00:12:34.947Z,40.8
2018-08-12T00:13:25.502Z,40.8
2018-08-12T00:14:15.050Z,40.8
2018-08-12T00:15:05.791Z,40.8
2018-08-12T00:15:55.742Z,40.8
2018-08-12T00:16:44.986Z,40.8
2018-08-12T00:17:35.285Z,40.8
2018-08-12T00:18:25.417Z,40.7
2018-08-12T00:37:18.488Z,40.6
2018-08-12T00:38:09.047Z,40.6
2018-08-12T00:38:59.346Z,40.6
2018-08-12T00:39:49.119Z,40.6
2018-08-12T00:40:38.616Z,40.6
2018-08-12T00:41:29.208Z,40.5
2018-08-12T00:42:19.564Z,40.5
2018-08-12T00:43:09.647Z,40.5
2018-08-12T00:43:59.711Z,40.5
2018-08-12T00:44:48.322Z,40.5
2018-08-12T00:45:39.818Z,40.5
2018-08-12T00:46:29.877Z,40.5
2018-08-12T00:47:19.400Z,40.5
2018-08-12T00:48:09.827Z,40.4
2018-08-12T00:48:59.512Z,40.4
2018-08-12T00:49:49.595Z,40.4
2018-08-12T00:50:40.201Z,40.4
2018-08-12T00:51:30.270Z,40.4
2018-08-12T00:52:20.459Z,40.4
2018-08-12T00:53:10.155Z,40.4
2018-08-12T00:54:00.194Z,40.4
2018-08-12T00:54:50.525Z,40.4
2018-08-12T00:55:40.589Z,40.4
2018-08-12T00:56:30.678Z,40.4
2018-08-12T00:57:20.169Z,40.4
2018-08-12T00:58:09.927Z,40.4
2018-08-12T00:58:59.696Z,40.4
2018-08-12T00:59:50.356Z,40.4
2018-08-12T01:00:40.671Z,40.4
2018-08-12T01:01:30.159Z,40.4
2018-08-12T01:02:20.841Z,40.4
2018-08-12T01:03:10.326Z,40.4
2018-08-12T01:04:00.641Z,40.4
2018-08-12T01:04:51.022Z,40.4
2018-08-12T01:05:41.042Z,40.3
2018-08-12T01:06:30.840Z,40.3
2018-08-12T01:07:20.901Z,40.3
2018-08-12T01:08:11.516Z,40.3
2018-08-12T01:09:01.602Z,40.3
2018-08-12T01:09:51.174Z,40.3
2018-08-12T01:10:41.206Z,40.3
2018-08-12T01:11:31.546Z,40.3
2018-08-12T01:12:21.290Z,40.3
2018-08-12T01:13:11.648Z,40.3
2018-08-12T01:14:01.717Z,40.3
2018-08-12T01:14:50.991Z,40.3
2018-08-12T01:15:41.270Z,40.3
2018-08-12T01:16:31.861Z,40.3
2018-08-12T01:17:21.935Z,40.3
2018-08-12T01:18:12.276Z,40.3
2018-08-12T01:19:02.076Z,40.2
2018-08-12T01:19:51.592Z,40.2
2018-08-12T01:20:42.510Z,40.2
2018-08-12T01:21:32.005Z,40.2
2018-08-12T01:22:22.359Z,40.2
2018-08-12T01:23:12.528Z,40.2
2018-08-12T01:24:02.196Z,40.2
2018-08-12T01:24:52.280Z,40.2
2018-08-12T01:25:42.052Z,40.1
2018-08-12T01:26:32.376Z,40.1
2018-08-12T01:27:22.496Z,40.1
2018-08-12T01:28:12.536Z,40.1
2018-08-12T01:29:03.183Z,40.1
2018-08-12T01:29:52.655Z,40.1
2018-08-12T01:30:43.358Z,40.1
2018-08-12T01:31:33.378Z,40.1
2018-08-12T01:32:23.123Z,40.1
2018-08-12T01:33:13.473Z,40.1
2018-08-12T01:34:03.248Z,40.1
2018-08-12T01:34:53.323Z,40.1
2018-08-12T01:35:43.681Z,40.1
2018-08-12T01:36:33.455Z,40.1
2018-08-12T01:37:23.537Z,40.1
2018-08-12T01:38:13.582Z,40.1
2018-08-12T01:39:03.357Z,40.1
2018-08-12T01:39:53.689Z,40.1
2018-08-12T01:40:43.759Z,40.1
2018-08-12T01:41:33.260Z,40.1
2018-08-12T01:42:23.307Z,40.1
2018-08-12T01:43:13.943Z,40
2018-08-12T01:44:04.226Z,40
2018-08-12T01:44:53.866Z,40
2018-08-12T01:45:43.587Z,40
2018-08-12T01:46:33.960Z,40
2018-08-12T01:47:23.966Z,40
2018-08-12T01:48:14.641Z,39.9
2018-08-12T01:49:04.181Z,40
2018-08-12T01:49:54.427Z,40
2018-08-12T01:50:44.481Z,39.9
2018-08-12T01:51:34.906Z,39.9
2018-08-12T01:52:24.931Z,39.9
2018-08-12T01:53:14.455Z,39.9
2018-08-12T01:54:04.788Z,39.9
2018-08-12T01:54:54.605Z,39.9
2018-08-12T01:55:44.618Z,39.9
2018-08-12T01:56:35.086Z,39.9
2018-08-12T01:57:25.038Z,39.9
2018-08-12T01:58:15.379Z,39.9
2018-08-12T01:59:05.178Z,39.9
2018-08-12T01:59:54.414Z,39.9
2018-08-12T02:00:45.308Z,39.9
2018-08-12T02:01:35.640Z,39.9
2018-08-12T02:02:25.415Z,39.9
2018-08-12T02:03:15.484Z,39.9
2018-08-12T02:04:05.039Z,39.9
2018-08-12T02:04:55.034Z,39.9
2018-08-12T02:05:45.708Z,39.9
2018-08-12T02:06:35.776Z,39.8
2018-08-12T02:07:25.625Z,39.8
2018-08-12T02:08:16.154Z,39.8
2018-08-12T02:09:05.374Z,39.8
2018-08-12T02:09:56.009Z,39.8
2018-08-12T02:10:46.101Z,39.8
2018-08-12T02:11:35.562Z,39.8
2018-08-12T02:12:25.943Z,39.8
2018-08-12T02:13:16.249Z,39.8
2018-08-12T02:14:06.595Z,39.8
2018-08-12T02:14:55.570Z,39.8
2018-08-12T02:15:46.192Z,39.8
2018-08-12T02:16:36.799Z,39.8
2018-08-12T02:17:26.560Z,39.8
2018-08-12T02:18:16.366Z,39.8
2018-08-12T02:19:06.700Z,39.8
2018-08-12T02:19:55.915Z,39.8
2018-08-12T02:20:46.850Z,39.8
2018-08-12T02:21:36.030Z,39.8
2018-08-12T02:22:26.368Z,39.7
2018-08-12T02:23:15.603Z,39.8
2018-08-12T02:24:07.381Z,39.8
2018-08-12T02:24:56.943Z,39.7
2018-08-12T02:25:46.946Z,39.7
2018-08-12T02:26:37.334Z,39.7
2018-08-12T02:27:27.111Z,39.7
2018-08-12T02:28:17.409Z,39.7
2018-08-12T02:29:07.186Z,39.7
2018-08-12T02:29:57.826Z,39.7
2018-08-12T02:30:47.611Z,39.7
2018-08-12T02:31:37.369Z,39.6
2018-08-12T02:32:27.812Z,39.7
2018-08-12T02:33:17.555Z,39.6
2018-08-12T02:34:07.604Z,39.6
2018-08-12T02:34:57.945Z,39.6
2018-08-12T02:35:47.991Z,39.6
2018-08-12T02:36:38.100Z,39.6
2018-08-12T02:37:27.571Z,39.6
2018-08-12T02:38:18.476Z,39.6
2018-08-12T02:39:08.263Z,39.6
2018-08-12T02:39:58.600Z,39.6
2018-08-12T02:40:48.401Z,39.6
2018-08-12T02:41:38.464Z,39.6
2018-08-12T02:42:28.546Z,39.6
2018-08-12T02:43:18.606Z,39.6
2018-08-12T02:44:08.630Z,39.6
2018-08-12T02:44:59.001Z,39.6
2018-08-12T02:45:48.909Z,39.6
2018-08-12T02:46:39.207Z,39.6
2018-08-12T02:47:28.944Z,39.6
2018-08-12T02:48:18.998Z,39.6
2018-08-12T02:49:09.036Z,39.5
2018-08-12T02:49:59.196Z,39.5
2018-08-12T02:50:48.860Z,39.5
2018-08-12T02:51:39.198Z,39.5
2018-08-12T02:52:29.272Z,39.5
2018-08-12T02:53:19.025Z,39.5
2018-08-12T02:54:09.692Z,39.5
2018-08-12T02:54:59.793Z,39.5
2018-08-12T02:55:48.971Z,39.5
2018-08-12T02:56:39.611Z,39.5
2018-08-12T02:57:29.635Z,39.5
2018-08-12T02:58:19.419Z,39.5
2018-08-12T02:59:08.945Z,39.5
2018-08-12T02:59:59.615Z,39.4
2018-08-12T03:00:49.932Z,39.4
2018-08-12T03:01:40.240Z,39.4
2018-08-12T03:02:29.454Z,39.4
2018-08-12T03:03:20.083Z,39.4
2018-08-12T03:04:10.149Z,39.4
2018-08-12T03:05:00.461Z,39.4
2018-08-12T03:05:50.389Z,39.4
2018-08-12T03:06:40.647Z,39.4
2018-08-12T03:07:30.122Z,39.4
2018-08-12T03:08:20.748Z,39.4
2018-08-12T03:09:10.569Z,39.4
2018-08-12T03:10:00.928Z,39.4
2018-08-12T03:10:50.969Z,39.4
2018-08-12T03:11:39.586Z,39.4
2018-08-12T03:12:30.810Z,39.4
2018-08-12T03:13:20.606Z,39.4
2018-08-12T03:14:10.971Z,39.3
2018-08-12T03:15:01.311Z,39.4
2018-08-12T03:15:51.361Z,39.3
2018-08-12T03:16:40.847Z,39.3
2018-08-12T03:17:31.446Z,39.3
2018-08-12T03:18:21.278Z,39.3
2018-08-12T03:19:11.333Z,39.3
2018-08-12T03:20:00.633Z,39.3
2018-08-12T03:20:50.551Z,39.3
2018-08-12T03:21:40.663Z,39.3
2018-08-12T03:22:32.672Z,39.3
2018-08-12T03:23:21.653Z,39.3
2018-08-12T03:24:11.743Z,39.3
2018-08-12T03:25:00.905Z,39.3
2018-08-12T03:25:51.873Z,39.3
2018-08-12T03:26:41.302Z,39.3
2018-08-12T03:27:31.702Z,39.3
2018-08-12T03:28:21.996Z,39.3
2018-08-12T03:29:11.523Z,39.3
2018-08-12T03:30:03.173Z,39.3
2018-08-12T03:30:52.486Z,39.3
2018-08-12T03:31:40.848Z,39.3
2018-08-12T03:32:30.886Z,39.3
2018-08-12T03:33:22.447Z,39.3
2018-08-12T03:34:12.471Z,39.3
2018-08-12T03:35:02.816Z,39.2
2018-08-12T03:35:52.345Z,39.2
2018-08-12T03:36:42.949Z,39.2
2018-08-12T03:37:33.032Z,39.2
2018-08-12T03:38:22.758Z,39.2
2018-08-12T03:39:12.035Z,39.2
2018-08-12T03:40:03.151Z,39.2
2018-08-12T03:40:53.230Z,39.2
2018-08-12T03:41:43.287Z,39.2
2018-08-12T03:42:33.373Z,39.2
2018-08-12T03:43:22.876Z,39.2
2018-08-12T03:44:13.541Z,39.1
2018-08-12T03:45:03.358Z,39.1
2018-08-12T03:45:53.337Z,39.1
2018-08-12T03:46:43.774Z,39.1
2018-08-12T03:47:33.764Z,39.1
2018-08-12T03:48:23.535Z,39.1
2018-08-12T03:49:13.622Z,39.1
2018-08-12T03:50:03.694Z,39.1
2018-08-12T03:50:54.080Z,39.1
2018-08-12T03:51:43.497Z,39.1
2018-08-12T03:52:33.584Z,39.1
2018-08-12T03:53:24.212Z,39.1
2018-08-12T03:54:14.260Z,39.1
2018-08-12T03:55:04.069Z,39.1
2018-08-12T03:55:54.101Z,39.1
2018-08-12T03:56:44.496Z,39.1
2018-08-12T03:57:34.261Z,39.1
2018-08-12T03:58:23.462Z,39.1
2018-08-12T03:59:14.686Z,39.1
2018-08-12T04:00:04.208Z,39.1
2018-08-12T04:00:54.777Z,39.1
2018-08-12T04:01:44.280Z,39.1
2018-08-12T04:02:34.622Z,39.1
2018-08-12T04:03:24.666Z,39
2018-08-12T04:04:13.903Z,39.1
2018-08-12T04:05:04.819Z,39
2018-08-12T04:05:54.867Z,39
2018-08-12T04:06:45.217Z,39
2018-08-12T04:07:34.421Z,39
2018-08-12T04:08:25.327Z,39
2018-08-12T04:09:14.835Z,39
2018-08-12T04:10:05.488Z,39
2018-08-12T04:10:54.950Z,39
2018-08-12T04:11:45.580Z,38.9
2018-08-12T04:12:35.629Z,38.9
2018-08-12T04:13:25.433Z,38.9
2018-08-12T04:14:15.777Z,38.9
2018-08-12T04:15:05.848Z,38.9
2018-08-12T04:15:55.610Z,38.9
2018-08-12T04:16:45.441Z,38.9
2018-08-12T04:17:35.752Z,38.9
2018-08-12T04:18:25.551Z,38.9
2018-08-12T04:19:15.329Z,38.9
2018-08-12T04:20:05.500Z,38.9
2018-08-12T04:20:56.019Z,38.9
2018-08-12T04:21:46.396Z,38.9
2018-08-12T04:22:36.455Z,38.9
2018-08-12T04:23:26.228Z,38.9
2018-08-12T04:24:16.565Z,38.9
2018-08-12T04:25:06.625Z,38.9
2018-08-12T04:25:56.437Z,38.9
2018-08-12T04:26:46.753Z,38.9
2018-08-12T04:27:36.521Z,38.9
2018-08-12T04:28:26.321Z,38.9
2018-08-12T04:29:16.973Z,38.9
2018-08-12T04:30:07.038Z,38.8
2018-08-12T04:30:56.537Z,38.8
2018-08-12T04:31:46.902Z,38.9
2018-08-12T04:32:36.334Z,38.8
2018-08-12T04:33:26.787Z,38.8
2018-08-12T04:34:17.333Z,38.9
2018-08-12T04:35:07.383Z,38.8
2018-08-12T04:35:57.172Z,38.8
2018-08-12T04:36:47.528Z,38.8
2018-08-12T04:37:37.377Z,38.8
2018-08-12T04:38:26.514Z,38.8
2018-08-12T04:39:17.154Z,38.8
2018-08-12T04:40:06.335Z,38.8
2018-08-12T04:40:57.571Z,38.8
2018-08-12T04:41:47.050Z,38.8
2018-08-12T04:42:37.149Z,38.8
2018-08-12T04:43:27.471Z,38.8
2018-08-12T04:44:17.231Z,38.8
2018-08-12T04:45:07.896Z,38.8
2018-08-12T04:45:58.702Z,38.8
2018-08-12T04:46:47.466Z,38.8
2018-08-12T04:47:38.084Z,38.8
2018-08-12T04:48:28.199Z,38.8
2018-08-12T05:06:42.586Z,38.6
2018-08-12T05:07:32.449Z,38.6
2018-08-12T05:08:21.594Z,38.6
2018-08-12T05:09:13.045Z,38.7
2018-08-12T05:10:03.194Z,38.6
2018-08-12T05:10:53.182Z,38.6
2018-08-12T05:11:42.983Z,38.6
2018-08-12T05:12:33.309Z,38.6
2018-08-12T05:13:23.346Z,38.6
2018-08-12T05:14:13.446Z,38.6
2018-08-12T05:15:02.920Z,38.6
2018-08-12T05:15:53.253Z,38.6
2018-08-12T05:16:42.489Z,38.6
2018-08-12T05:17:33.124Z,38.6
2018-08-12T05:18:23.491Z,38.6
2018-08-12T05:19:13.873Z,38.6
2018-08-12T05:20:03.066Z,38.6
2018-08-12T05:20:53.079Z,38.6
2018-08-12T05:21:44.044Z,38.6
2018-08-12T05:22:34.036Z,38.6
2018-08-12T05:23:24.185Z,38.6
2018-08-12T05:24:13.345Z,38.6
2018-08-12T05:25:04.303Z,38.6
2018-08-12T05:25:54.065Z,38.6
2018-08-12T05:26:44.375Z,38.6
2018-08-12T05:27:33.940Z,38.6
2018-08-12T05:28:23.770Z,38.6
2018-08-12T05:29:14.572Z,38.6
2018-08-12T05:30:04.686Z,38.6
2018-08-12T05:30:54.421Z,38.6
2018-08-12T05:31:44.485Z,38.6
2018-08-12T05:32:33.449Z,38.5
2018-08-12T05:33:24.322Z,38.6
2018-08-12T05:34:14.652Z,38.5
2018-08-12T05:35:04.220Z,38.5
2018-08-12T05:35:54.809Z,38.5
2018-08-12T05:36:45.176Z,38.5
2018-08-12T05:37:34.992Z,38.5
2018-08-12T05:38:24.680Z,38.5
2018-08-12T05:39:14.020Z,38.5
2018-08-12T05:40:04.550Z,38.5
2018-08-12T05:40:55.490Z,38.5
2018-08-12T05:41:44.974Z,38.5
2018-08-12T05:42:35.027Z,38.5
2018-08-12T05:43:25.127Z,38.4
2018-08-12T05:44:15.150Z,38.5
2018-08-12T05:45:04.737Z,38.5
2018-08-12T05:45:55.818Z,38.4
2018-08-12T05:46:45.610Z,38.4
2018-08-12T05:47:35.691Z,38.4
2018-08-12T05:48:25.539Z,38.5
2018-08-12T05:49:15.507Z,38.4
2018-08-12T05:50:05.610Z,38.4
2018-08-12T05:50:55.431Z,38.4
2018-08-12T05:51:46.339Z,38.4
2018-08-12T05:52:36.075Z,38.4
2018-08-12T05:53:26.233Z,38.4
2018-08-12T05:54:16.214Z,38.4
2018-08-12T05:55:06.583Z,38.4
2018-08-12T05:55:56.337Z,38.4
2018-08-12T05:56:46.389Z,38.4
2018-08-12T05:57:35.937Z,38.4
2018-08-12T05:58:26.350Z,38.4
2018-08-12T05:59:14.884Z,38.4
2018-08-12T06:00:06.982Z,38.4
2018-08-12T06:00:56.736Z,38.4
2018-08-12T06:01:46.789Z,38.4
2018-08-12T06:02:37.650Z,38.4
2018-08-12T06:03:27.196Z,38.4
2018-08-12T06:04:16.968Z,38.4
2018-08-12T06:05:07.057Z,38.4
2018-08-12T06:05:57.100Z,38.4
2018-08-12T06:06:46.891Z,38.4
2018-08-12T06:07:36.771Z,38.4
2018-08-12T06:08:26.650Z,38.4
2018-08-12T06:09:16.863Z,38.4
2018-08-12T06:10:07.216Z,38.4
2018-08-12T06:10:56.990Z,38.4
2018-08-12T06:11:47.352Z,38.4
2018-08-12T06:12:37.114Z,38.4
2018-08-12T06:13:27.462Z,38.4
2018-08-12T06:14:17.520Z,38.4
2018-08-12T06:15:07.322Z,38.3
2018-08-12T06:15:57.431Z,38.3
2018-08-12T06:16:47.707Z,38.4
2018-08-12T06:17:38.898Z,38.3
2018-08-12T06:18:27.298Z,38.3
2018-08-12T06:19:18.397Z,38.3
2018-08-12T06:20:08.223Z,38.5
2018-08-12T06:20:57.965Z,46.2
2018-08-12T06:21:48.300Z,46.2
2018-08-12T06:22:38.089Z,48.3
2018-08-12T06:23:28.177Z,50.1
2018-08-12T06:24:18.787Z,50
2018-08-12T06:25:08.294Z,49.2
2018-08-12T06:25:58.964Z,48.3
2018-08-12T06:26:48.673Z,47.6
2018-08-12T06:27:38.798Z,47.1
2018-08-12T06:28:28.942Z,46.8
2018-08-12T06:29:18.316Z,46.3
2018-08-12T06:30:08.963Z,46
2018-08-12T06:30:59.335Z,45.6
2018-08-12T06:31:49.154Z,45.3
2018-08-12T06:32:39.247Z,45
2018-08-12T06:33:28.372Z,44.7
2018-08-12T06:34:19.340Z,44.4
2018-08-12T06:35:09.085Z,44.2
2018-08-12T06:35:58.374Z,44
2018-08-12T06:36:49.507Z,43.8
2018-08-12T06:37:39.289Z,43.6
2018-08-12T06:38:29.028Z,43.4
2018-08-12T06:39:19.666Z,43.3
2018-08-12T06:40:09.192Z,43.1
2018-08-12T06:40:59.808Z,43
2018-08-12T06:41:50.162Z,42.8
2018-08-12T06:42:39.720Z,42.7
2018-08-12T06:43:30.271Z,42.6
2018-08-12T06:44:19.858Z,42.4
2018-08-12T06:45:10.405Z,42.4
2018-08-12T06:45:59.638Z,44.5
2018-08-12T06:46:49.948Z,48.6
2018-08-12T06:47:39.981Z,49
2018-08-12T06:48:30.373Z,51.3
2018-08-12T06:49:20.136Z,52
2018-08-12T06:51:00.298Z,51.7
2018-08-12T06:51:51.825Z,51.6
2018-08-12T06:52:40.717Z,51.8
2018-08-12T06:53:31.081Z,52.2
2018-08-12T06:54:20.544Z,52.5
2018-08-12T06:55:10.677Z,52.8
2018-08-12T06:56:00.014Z,52.9
2018-08-12T06:56:51.088Z,52.9
2018-08-12T06:57:40.796Z,53.1
2018-08-12T06:58:31.148Z,53.2
2018-08-12T06:59:20.919Z,53.3
2018-08-12T07:00:11.264Z,53.5
2018-08-12T07:01:01.301Z,53.6
2018-08-12T07:01:51.398Z,53.7
2018-08-12T07:02:41.804Z,53.8
2018-08-12T07:03:30.744Z,53.9
2018-08-12T07:04:20.845Z,53.9
2018-08-12T07:05:11.469Z,54
2018-08-12T07:06:01.535Z,54.1
2018-08-12T07:06:51.307Z,54.2
2018-08-12T07:07:41.613Z,54.3
2018-08-12T07:08:31.127Z,54.4
2018-08-12T07:09:21.257Z,54.4
2018-08-12T07:10:11.830Z,54.5
2018-08-12T07:11:02.115Z,54.6
2018-08-12T07:11:51.899Z,54.6
2018-08-12T07:12:41.944Z,54.7
2018-08-12T07:13:31.516Z,54.8
2018-08-12T07:14:22.030Z,54.8
2018-08-12T07:15:12.179Z,54.9
2018-08-12T07:16:02.275Z,55
2018-08-12T07:16:51.976Z,55.1
2018-08-12T07:17:42.145Z,55.2
2018-08-12T07:18:32.949Z,55.3
2018-08-12T07:19:22.760Z,55.4
2018-08-12T07:20:12.825Z,55.5
2018-08-12T07:21:02.871Z,55.6
2018-08-12T07:21:52.914Z,55.7
2018-08-12T07:22:42.463Z,55.8
2018-08-12T07:23:32.563Z,55.8
2018-08-12T07:24:23.406Z,55.9
2018-08-12T07:25:12.922Z,56
2018-08-12T07:26:03.306Z,56.1
2018-08-12T07:26:53.307Z,56.2
2018-08-12T07:27:42.533Z,56.1
2018-08-12T07:28:33.749Z,55.8
2018-08-12T07:29:23.287Z,55.4
2018-08-12T07:30:13.833Z,55.1
2018-08-12T07:31:03.378Z,54.7
2018-08-12T07:31:53.733Z,54.4
2018-08-12T07:32:44.355Z,54
2018-08-12T07:33:34.131Z,53.5
2018-08-12T07:34:24.175Z,52.9
2018-08-12T07:35:14.240Z,52.2
2018-08-12T07:36:04.038Z,51.5
2018-08-12T07:36:54.055Z,50.7
2018-08-12T07:37:44.442Z,50
2018-08-12T07:38:34.389Z,49.3
2018-08-12T07:39:24.578Z,48.6
2018-08-12T07:40:14.410Z,47.9
2018-08-12T07:41:04.702Z,47.2
2018-08-12T07:41:53.686Z,46.4
2018-08-12T07:42:44.571Z,45.5
2018-08-12T07:43:34.049Z,44.8
2018-08-12T07:44:24.139Z,44
2018-08-12T07:45:14.417Z,43.4
2018-08-12T07:46:04.800Z,42.9
2018-08-12T07:46:54.571Z,42.3
2018-08-12T07:47:44.631Z,41.8
2018-08-12T07:48:34.788Z,41.7
2018-08-12T07:49:24.805Z,41.8
2018-08-12T07:50:15.169Z,41.9
2018-08-12T07:51:05.025Z,42.1
2018-08-12T07:51:55.259Z,42.2
2018-08-12T07:52:45.351Z,42.3
2018-08-12T07:53:35.403Z,42.3
2018-08-12T07:54:25.759Z,42.3
2018-08-12T07:55:15.807Z,41.9
2018-08-12T07:56:05.606Z,41.4
2018-08-12T07:56:55.663Z,40.9
2018-08-12T07:57:45.707Z,40.4
2018-08-12T07:58:35.787Z,39.9
2018-08-12T07:59:26.138Z,39.5
2018-08-12T08:00:15.373Z,39.1
2018-08-12T08:01:06.210Z,38.7
2018-08-12T08:01:56.283Z,38.3
2018-08-12T08:02:46.348Z,38
2018-08-12T08:03:36.386Z,37.9
2018-08-12T08:04:26.190Z,37.9
2018-08-12T08:05:16.266Z,37.6
2018-08-12T08:06:06.440Z,37.3
2018-08-12T08:06:56.391Z,36.9
2018-08-12T08:07:46.470Z,36.7
2018-08-12T08:08:36.537Z,36.8
2018-08-12T08:09:26.597Z,36.8
2018-08-12T08:10:16.731Z,37
2018-08-12T08:11:06.775Z,37.1
2018-08-12T08:11:56.844Z,37.3
2018-08-12T08:12:47.252Z,37.4
2018-08-12T08:13:36.640Z,37.6
2018-08-12T08:14:27.290Z,37.8
2018-08-12T08:15:17.080Z,37.9
2018-08-12T08:16:07.200Z,38.1
2018-08-12T08:16:56.729Z,38.3
2018-08-12T08:17:47.304Z,38.5
2018-08-12T08:18:37.377Z,38.8
2018-08-12T08:19:27.448Z,38.9
2018-08-12T08:20:17.521Z,39.2
2018-08-12T08:21:07.581Z,39.4
2018-08-12T08:21:57.871Z,39.5
2018-08-12T08:22:46.930Z,39.8
2018-08-12T08:23:36.953Z,39.9
2018-08-12T08:24:27.305Z,40.1
2018-08-12T08:25:17.297Z,40.2
2018-08-12T08:26:07.719Z,40.3
2018-08-12T08:26:57.490Z,40.5
2018-08-12T08:27:47.312Z,40.7
2018-08-12T08:28:37.166Z,40.8
2018-08-12T08:29:27.651Z,41
2018-08-12T08:30:17.787Z,41.2
2018-08-12T08:31:07.880Z,41.3
2018-08-12T08:32:01.614Z,41.4
2018-08-12T08:32:48.137Z,41.5
2018-08-12T08:33:38.757Z,41.6
2018-08-12T08:34:28.884Z,41.8
2018-08-12T08:35:18.892Z,41.9
2018-08-12T08:36:07.891Z,42
2018-08-12T08:36:58.723Z,42.2
2018-08-12T08:37:48.339Z,42.3
2018-08-12T08:38:38.889Z,42.4
2018-08-12T08:39:28.387Z,42.5
2018-08-12T08:40:18.101Z,42.6
2018-08-12T08:41:08.752Z,42.4
2018-08-12T08:41:59.124Z,42.5
2018-08-12T08:42:49.188Z,42.6
2018-08-12T08:43:38.743Z,42.8
2018-08-12T08:44:29.323Z,42.9
2018-08-12T08:45:19.677Z,43.1
2018-08-12T08:46:09.746Z,43.3
2018-08-12T08:46:59.493Z,43.4
2018-08-12T08:47:49.916Z,43.5
2018-08-12T08:48:39.658Z,43.7
2018-08-12T08:49:29.950Z,43.9
2018-08-12T08:50:19.455Z,44
2018-08-12T08:51:09.544Z,44.2
2018-08-12T08:51:59.673Z,44.4
2018-08-12T08:52:49.663Z,44.6
2018-08-12T08:53:38.576Z,44.8
2018-08-12T08:54:30.121Z,45
2018-08-12T08:55:18.990Z,45.2
2018-08-12T08:56:10.979Z,45.3
2018-08-12T08:57:00.099Z,45.6
2018-08-12T08:57:50.381Z,45.8
2018-08-12T08:58:40.385Z,45.9
2018-08-12T08:59:30.786Z,46.1
2018-08-12T09:00:20.238Z,46.4
2018-08-12T09:01:11.001Z,46.6
2018-08-12T09:02:00.446Z,46.9
2018-08-12T09:02:50.733Z,47.1
2018-08-12T09:03:40.794Z,47.3
2018-08-12T09:04:30.904Z,47.6
2018-08-12T09:20:56.859Z,51
2018-08-12T09:21:46.209Z,51.1
2018-08-12T09:22:37.000Z,51.3
2018-08-12T09:23:26.587Z,51.4
2018-08-12T09:24:16.651Z,51.6
2018-08-12T09:25:07.198Z,51.8
2018-08-12T09:26:47.010Z,52.1
2018-08-12T09:27:37.158Z,52.2
2018-08-12T09:28:27.180Z,52.1
2018-08-12T09:29:17.069Z,52
2018-08-12T09:30:07.306Z,52.1
2018-08-12T09:30:56.873Z,52.4
2018-08-12T09:31:46.880Z,52.8
2018-08-12T09:32:37.208Z,52.9
2018-08-12T09:33:27.367Z,53
2018-08-12T09:34:16.856Z,53.1
2018-08-12T09:35:08.009Z,53.4
2018-08-12T09:35:57.755Z,53.6
2018-08-12T09:36:47.253Z,53.8
2018-08-12T09:37:37.887Z,54
2018-08-12T09:38:28.256Z,54.2
2018-08-12T09:39:18.339Z,54.3
2018-08-12T09:40:07.537Z,54.5
2018-08-12T09:40:58.441Z,54.7
2018-08-12T09:41:47.704Z,54.9
2018-08-12T09:42:38.562Z,55
2018-08-12T09:43:28.693Z,55.1
2018-08-12T09:44:18.564Z,55.3
2018-08-12T09:45:07.930Z,55.4
2018-08-12T09:45:58.305Z,55.6
2018-08-12T09:46:48.622Z,55.8
2018-08-12T09:47:37.844Z,55.9
2018-08-12T09:48:28.479Z,55.9
2018-08-12T09:49:18.637Z,56
2018-08-12T09:50:09.173Z,56.1
2018-08-12T09:50:58.684Z,56.1
2018-08-12T09:51:50.928Z,55.9
2018-08-12T09:52:39.335Z,55.9
2018-08-12T09:53:28.377Z,55.8
2018-08-12T09:54:18.969Z,55.7
2018-08-12T09:55:08.718Z,55.6
2018-08-12T09:55:59.622Z,55.6
2018-08-12T09:56:49.642Z,55.9
2018-08-12T09:57:39.747Z,56
2018-08-12T09:58:30.736Z,56
2018-08-12T09:59:19.574Z,56
2018-08-12T10:00:09.984Z,56.3
2018-08-12T10:00:59.149Z,56.6
2018-08-12T10:01:50.057Z,56.9
2018-08-12T10:02:39.846Z,57.1
2018-08-12T10:03:30.174Z,57.3
2018-08-12T10:04:20.018Z,57.4
2018-08-12T10:05:09.564Z,57.6
2018-08-12T10:05:59.823Z,57.6
2018-08-12T10:06:50.201Z,57.5
2018-08-12T10:07:41.086Z,57.3
2018-08-12T10:08:30.092Z,57.1
2018-08-12T10:09:19.391Z,56.9
2018-08-12T10:10:10.244Z,56.8
2018-08-12T10:11:00.258Z,56.6
2018-08-12T10:11:49.794Z,56.5
2018-08-12T10:12:40.969Z,56.4
2018-08-12T10:13:30.448Z,56.6
2018-08-12T10:14:20.771Z,57.1
2018-08-12T10:15:10.826Z,57.5
2018-08-12T10:16:00.637Z,57.8
2018-08-12T10:16:49.848Z,57.9
2018-08-12T10:17:40.486Z,58.1
2018-08-12T10:18:31.357Z,58.1
2018-08-12T10:19:21.433Z,58.3
2018-08-12T10:20:11.192Z,58.4
2018-08-12T10:21:51.607Z,58.7
2018-08-12T10:22:41.720Z,58.8
2018-08-12T10:23:31.740Z,58.9
2018-08-12T10:24:21.785Z,59.1
2018-08-12T10:25:11.323Z,59.1
2018-08-12T10:26:01.384Z,59.3
2018-08-12T10:26:51.233Z,59.3
2018-08-12T10:27:41.797Z,59.4
2018-08-12T10:28:30.780Z,59.6
2018-08-12T10:29:23.267Z,59.7
2018-08-12T10:30:12.256Z,59.8
2018-08-12T10:31:01.815Z,59.9
2018-08-12T10:31:52.417Z,60
2018-08-12T10:32:42.430Z,60.1
2018-08-12T10:33:31.976Z,60.1
2018-08-12T10:34:22.279Z,60
2018-08-12T10:35:12.355Z,60.1
2018-08-12T10:36:02.716Z,60.3
2018-08-12T10:36:52.747Z,60.4
2018-08-12T10:37:42.568Z,60.5
2018-08-12T10:38:32.600Z,60.6
2018-08-12T10:39:22.950Z,60.6
2018-08-12T10:40:12.460Z,60.8
2018-08-12T10:41:03.065Z,60.8
2018-08-12T10:41:53.195Z,60.9
2018-08-12T10:42:43.237Z,61
2018-08-12T10:43:32.795Z,61.1
2018-08-12T10:44:24.151Z,61.1
2018-08-12T10:45:13.510Z,61.1
2018-08-12T10:46:03.214Z,61.3
2018-08-12T10:46:53.015Z,61.3
2018-08-12T10:47:43.391Z,61.4
2018-08-12T10:48:33.166Z,61.4
2018-08-12T10:49:23.579Z,61.4
2018-08-12T10:50:13.332Z,61.3
2018-08-12T10:51:04.105Z,61.3
2018-08-12T10:51:53.498Z,61.2
2018-08-12T10:52:43.803Z,61.2
2018-08-12T10:53:34.373Z,61.4
2018-08-12T10:54:24.271Z,61.6
2018-08-12T10:55:14.235Z,61.8
2018-08-12T10:56:03.444Z,61.8
2018-08-12T10:56:53.788Z,61.9
2018-08-12T10:57:44.483Z,61.9
2018-08-12T10:58:33.342Z,62.1
2018-08-12T10:59:25.425Z,62.1
2018-08-12T11:00:13.812Z,62.2
2018-08-12T11:01:04.090Z,62.3
2018-08-12T11:01:54.193Z,62.4
2018-08-12T11:02:44.843Z,62.4
2018-08-12T11:03:34.604Z,62.5
2018-08-12T11:04:24.902Z,62.6
2018-08-12T11:05:15.000Z,62.6
2018-08-12T11:06:04.866Z,62.7
2018-08-12T11:06:54.395Z,62.6
2018-08-12T11:07:44.948Z,62.6
2018-08-12T11:08:33.870Z,62.6
2018-08-12T11:09:24.222Z,62.8
2018-08-12T11:10:15.400Z,62.9
2018-08-12T11:11:05.439Z,63
2018-08-12T11:11:54.961Z,63.1
2018-08-12T11:12:46.890Z,63.1
2018-08-12T11:13:35.396Z,63.2
2018-08-12T11:14:25.695Z,63.1
2018-08-12T11:15:14.389Z,63.1
2018-08-12T11:16:05.598Z,63
2018-08-12T11:16:55.365Z,62.8
2018-08-12T11:17:45.772Z,62.4
2018-08-12T11:18:35.795Z,62.3
2018-08-12T11:19:25.876Z,62.1
2018-08-12T11:20:15.902Z,62
2018-08-12T11:21:05.697Z,61.9
2018-08-12T11:21:56.086Z,61.9
2018-08-12T11:22:46.421Z,61.8
2018-08-12T11:23:36.426Z,61.7
2018-08-12T11:24:25.928Z,61.6
2018-08-12T11:25:16.563Z,61.7
2018-08-12T11:26:06.119Z,62.2
2018-08-12T11:26:56.421Z,62.6
2018-08-12T11:27:46.261Z,62.8
2018-08-12T11:28:37.760Z,62.9
2018-08-12T11:29:26.635Z,62.9
2018-08-12T11:30:16.669Z,62.9
2018-08-12T11:31:07.124Z,63.1
2018-08-12T11:31:56.247Z,63.2
2018-08-12T11:32:46.338Z,63.3
2018-08-12T11:33:36.935Z,63.4
2018-08-12T11:34:27.289Z,63.4
2018-08-12T11:35:17.057Z,63.5
2018-08-12T11:36:06.661Z,63.6
2018-08-12T11:36:56.935Z,63.6
2018-08-12T11:37:47.577Z,63.8
2018-08-12T11:38:37.305Z,63.8
2018-08-12T11:39:27.390Z,63.8
2018-08-12T11:40:17.504Z,63.8
2018-08-12T11:41:07.798Z,63.8
2018-08-12T11:41:57.023Z,63.9
2018-08-12T11:42:47.950Z,63.9
2018-08-12T11:43:37.123Z,63.9
2018-08-12T11:44:27.509Z,64
2018-08-12T11:45:18.161Z,64.1
2018-08-12T11:46:07.914Z,64.1
2018-08-12T11:46:57.953Z,64.2
2018-08-12T11:47:48.310Z,64.3
2018-08-12T11:48:38.335Z,64.3
2018-08-12T11:49:28.162Z,64.3
2018-08-12T11:50:17.405Z,64.3
2018-08-12T11:51:08.564Z,64.4
2018-08-12T11:51:58.604Z,64.4
2018-08-12T11:52:48.147Z,64.5
2018-08-12T11:53:38.799Z,64.5
2018-08-12T11:54:28.552Z,64.6
2018-08-12T11:55:18.643Z,64.6
2018-08-12T11:56:08.429Z,64.6
2018-08-12T11:56:59.325Z,64.6
2018-08-12T11:57:48.655Z,64.6
2018-08-12T11:58:38.915Z,64.8
2018-08-12T11:59:28.992Z,64.8
2018-08-12T12:00:17.914Z,64.8
2018-08-12T12:01:09.101Z,64.9
2018-08-12T12:01:59.434Z,64.9